createdAt,value
2018-03-26T00:00:57.487Z,25.30
2018-03-26T00:03:31.090Z,26.50
2018-03-26T00:06:04.762Z,26.60
2018-03-26T00:08:38.445Z,27.10
2018-03-26T00:11:12.145Z,26.47
2018-03-26T00:13:45.854Z,26.77
2018-03-26T00:16:19.483Z,26.47
2018-03-26T00:18:53.096Z,25.07
2018-03-26T00:21:26.698Z,26.13
2018-03-26T00:24:00.286Z,27.00
2018-03-26T00:26:33.826Z,26.30
2018-03-26T00:29:07.411Z,26.63
2018-03-26T00:31:40.987Z,26.00
2018-03-26T00:34:14.597Z,27.60
2018-03-26T00:36:48.276Z,26.83
2018-03-26T00:39:22.075Z,25.80
2018-03-26T00:41:55.768Z,26.70
2018-03-26T00:44:29.502Z,26.50
2018-03-26T00:47:03.094Z,27.97
2018-03-26T00:49:36.726Z,26.43
2018-03-26T00:52:10.322Z,26.30
2018-03-26T00:54:44.037Z,25.93
2018-03-26T00:57:17.611Z,28.87
2018-03-26T00:59:51.206Z,28.07
2018-03-26T01:02:24.718Z,27.63
2018-03-26T01:04:58.302Z,27.27
2018-03-26T01:07:31.929Z,26.03
2018-03-26T01:10:05.531Z,27.67
2018-03-26T01:12:39.146Z,29.80
2018-03-26T01:15:12.894Z,29.63
2018-03-26T01:17:46.595Z,30.53
2018-03-26T01:20:20.233Z,30.13
2018-03-26T01:22:53.755Z,31.23
2018-03-26T01:25:27.384Z,32.63
2018-03-26T01:28:00.950Z,32.33
2018-03-26T01:30:34.562Z,31.77
2018-03-26T01:33:08.129Z,32.03
2018-03-26T01:35:41.806Z,31.33
2018-03-26T01:38:15.467Z,32.97
2018-03-26T01:40:49.065Z,32.90
2018-03-26T01:43:22.619Z,30.57
2018-03-26T01:45:56.324Z,33.53
2018-03-26T01:48:30.090Z,29.93
2018-03-26T01:51:03.613Z,32.97
2018-03-26T01:53:37.218Z,31.83
2018-03-26T01:56:10.855Z,32.70
2018-03-26T01:58:44.487Z,33.00
2018-03-26T02:01:18.299Z,33.53
2018-03-26T02:03:51.875Z,33.17
2018-03-26T02:06:25.604Z,32.80
2018-03-26T02:08:59.175Z,33.93
2018-03-26T02:11:32.813Z,36.97
2018-03-26T02:14:06.522Z,36.60
2018-03-26T02:16:40.054Z,35.27
2018-03-26T02:19:13.725Z,35.10
2018-03-26T02:21:47.255Z,33.13
2018-03-26T02:24:20.831Z,32.43
2018-03-26T02:30:12.811Z,33.77
2018-03-26T02:32:46.447Z,35.87
2018-03-26T02:35:20.034Z,36.57
2018-03-26T02:37:53.683Z,36.83
2018-03-26T02:40:27.233Z,37.10
2018-03-26T02:43:00.867Z,36.93
2018-03-26T02:45:34.492Z,37.43
2018-03-26T02:48:08.106Z,38.50
2018-03-26T02:50:41.795Z,38.30
2018-03-26T02:53:15.405Z,39.60
2018-03-26T02:55:49.048Z,39.67
2018-03-26T02:58:22.662Z,41.37
2018-03-26T03:00:56.295Z,41.10
2018-03-26T03:03:29.947Z,39.47
2018-03-26T03:06:03.490Z,41.87
2018-03-26T03:08:37.201Z,41.03
2018-03-26T03:11:10.790Z,43.77
2018-03-26T03:13:44.407Z,43.17
2018-03-26T03:16:18.015Z,43.33
2018-03-26T03:18:51.648Z,44.37
2018-03-26T03:21:25.466Z,43.40
2018-03-26T03:23:59.107Z,45.47
2018-03-26T03:26:32.788Z,42.17
2018-03-26T03:29:06.563Z,45.87
2018-03-26T03:31:40.117Z,43.17
2018-03-26T03:34:13.910Z,43.77
2018-03-26T03:36:48.410Z,44.57
2018-03-26T03:39:22.222Z,43.07
2018-03-26T03:41:55.906Z,43.97
2018-03-26T03:44:29.592Z,44.30
2018-03-26T03:47:03.150Z,43.80
2018-03-26T03:49:36.691Z,42.83
2018-03-26T03:52:10.337Z,42.50
2018-03-26T03:54:43.919Z,43.70
2018-03-26T03:57:17.551Z,40.40
2018-03-26T03:59:51.328Z,40.20
2018-03-26T04:02:24.966Z,40.23
2018-03-26T04:04:58.534Z,41.23
2018-03-26T04:07:32.214Z,40.70
2018-03-26T04:10:05.822Z,41.80
2018-03-26T04:12:39.514Z,44.17
2018-03-26T04:15:13.158Z,43.40
2018-03-26T04:17:46.818Z,43.40
2018-03-26T04:20:20.394Z,40.57
2018-03-26T04:22:54.066Z,39.87
2018-03-26T04:25:27.794Z,41.27
2018-03-26T04:28:01.322Z,41.67
2018-03-26T04:30:34.978Z,41.30
2018-03-26T04:33:08.606Z,43.40
2018-03-26T04:35:42.354Z,40.07
2018-03-26T04:38:15.908Z,41.73
2018-03-26T04:40:49.574Z,39.53
2018-03-26T04:43:23.337Z,40.83
2018-03-26T04:45:56.854Z,37.87
2018-03-26T04:48:30.451Z,39.23
2018-03-26T04:51:04.038Z,38.30
2018-03-26T04:53:37.638Z,36.80
2018-03-26T04:56:11.466Z,38.77
2018-03-26T04:58:45.147Z,37.87
2018-03-26T05:01:18.749Z,38.10
2018-03-26T05:03:52.398Z,38.13
2018-03-26T05:06:26.115Z,38.40
2018-03-26T05:08:59.818Z,38.07
2018-03-26T05:11:33.590Z,37.77
2018-03-26T05:14:07.307Z,38.10
2018-03-26T05:16:41.029Z,38.70
2018-03-26T05:19:14.666Z,40.43
2018-03-26T05:21:48.238Z,37.87
2018-03-26T05:24:22.039Z,35.70
2018-03-26T05:29:55.466Z,39.37
2018-03-26T05:32:29.158Z,39.70
2018-03-26T05:35:02.767Z,40.03
2018-03-26T05:37:36.373Z,40.03
2018-03-26T05:40:10.122Z,38.83
2018-03-26T05:42:43.731Z,39.07
2018-03-26T05:45:17.366Z,37.73
2018-03-26T05:47:51.098Z,36.57
2018-03-26T05:50:24.783Z,38.97
2018-03-26T05:52:58.482Z,34.93
2018-03-26T05:55:32.128Z,37.33
2018-03-26T05:58:05.670Z,38.53
2018-03-26T06:00:39.490Z,40.67
2018-03-26T06:03:13.108Z,36.40
2018-03-26T06:05:46.786Z,39.30
2018-03-26T06:08:20.385Z,39.03
2018-03-26T06:10:53.980Z,36.13
2018-03-26T06:13:27.518Z,39.57
2018-03-26T06:16:01.252Z,38.00
2018-03-26T06:18:34.930Z,38.70
2018-03-26T06:21:08.622Z,35.63
2018-03-26T06:23:42.310Z,36.90
2018-03-26T06:26:15.976Z,36.63
2018-03-26T06:28:49.522Z,36.40
2018-03-26T06:31:23.078Z,34.47
2018-03-26T06:33:56.691Z,33.73
2018-03-26T06:36:36.234Z,32.73
2018-03-26T06:39:26.707Z,36.03
2018-03-26T06:42:00.302Z,35.53
2018-03-26T06:44:33.963Z,33.90
2018-03-26T06:47:17.838Z,34.40
2018-03-26T06:49:51.627Z,32.43
2018-03-26T06:52:25.214Z,34.33
2018-03-26T06:54:58.840Z,35.17
2018-03-26T06:57:32.514Z,33.40
2018-03-26T07:00:06.353Z,32.90
2018-03-26T07:02:39.952Z,33.57
2018-03-26T07:05:13.474Z,34.73
2018-03-26T07:07:47.177Z,31.93
2018-03-26T07:10:20.987Z,32.97
2018-03-26T07:12:54.681Z,33.77
2018-03-26T07:15:28.307Z,32.33
2018-03-26T07:18:02.105Z,33.93
2018-03-26T07:20:35.742Z,33.37
2018-03-26T07:23:09.386Z,33.17
2018-03-26T07:25:43.207Z,33.13
2018-03-26T07:28:17.017Z,30.63
2018-03-26T07:30:50.787Z,31.57
2018-03-26T07:33:24.489Z,29.30
2018-03-26T07:35:58.324Z,29.47
2018-03-26T07:38:32.012Z,28.70
2018-03-26T07:41:05.794Z,28.77
2018-03-26T07:43:39.330Z,27.47
2018-03-26T07:46:12.974Z,23.70
2018-03-26T07:48:46.783Z,20.93
2018-03-26T07:51:20.571Z,20.33
2018-03-26T07:53:54.194Z,20.33
2018-03-26T07:56:27.827Z,19.63
2018-03-26T07:59:01.400Z,20.57
2018-03-26T08:01:35.042Z,17.70
2018-03-26T08:04:08.662Z,22.20
2018-03-26T08:06:42.421Z,24.73
2018-03-26T08:09:16.135Z,25.63
2018-03-26T08:11:50.175Z,26.17
2018-03-26T08:14:23.774Z,26.73
2018-03-26T08:16:57.395Z,23.37
2018-03-26T08:19:31.046Z,26.90
2018-03-26T08:22:04.575Z,25.13
2018-03-26T08:24:38.233Z,25.27
2018-03-26T08:27:11.860Z,25.40
2018-03-26T08:29:45.643Z,17.30
2018-03-26T08:32:19.411Z,19.93
2018-03-26T08:34:53.139Z,15.07
2018-03-26T08:37:26.764Z,13.30
2018-03-26T08:40:00.629Z,14.17
2018-03-26T08:42:34.370Z,12.50
2018-03-26T08:45:08.182Z,13.53
2018-03-26T08:47:41.692Z,15.10
2018-03-26T08:50:15.352Z,13.30
2018-03-26T08:52:48.952Z,12.30
2018-03-26T08:55:22.538Z,13.37
2018-03-26T08:57:56.171Z,14.53
2018-03-26T09:00:29.793Z,14.60
2018-03-26T09:03:03.573Z,14.57
2018-03-26T09:05:37.143Z,12.50
2018-03-26T09:08:10.966Z,13.40
2018-03-26T09:10:44.719Z,9.10
2018-03-26T09:13:18.492Z,7.60
2018-03-26T09:15:52.087Z,7.57
2018-03-26T09:18:25.775Z,6.00
2018-03-26T09:20:59.669Z,7.87
2018-03-26T09:23:33.318Z,9.07
2018-03-26T09:26:07.020Z,9.60
2018-03-26T09:28:40.656Z,9.33
2018-03-26T09:31:14.455Z,9.37
2018-03-26T09:33:48.087Z,10.77
2018-03-26T09:36:21.777Z,10.13
2018-03-26T09:38:55.378Z,11.03
2018-03-26T09:41:28.922Z,9.90
2018-03-26T09:44:02.474Z,6.80
2018-03-26T09:46:36.088Z,6.70
2018-03-26T09:49:09.871Z,7.03
2018-03-26T09:51:43.494Z,7.63
2018-03-26T09:54:17.223Z,6.90
2018-03-26T09:56:50.982Z,6.70
2018-03-26T09:59:24.730Z,7.03
2018-03-26T10:01:58.415Z,5.97
2018-03-26T10:04:32.148Z,8.53
2018-03-26T10:07:05.754Z,10.10
2018-03-26T10:09:39.398Z,11.30
2018-03-26T10:12:13.200Z,11.27
2018-03-26T10:14:47.165Z,9.00
2018-03-26T10:17:20.923Z,9.17
2018-03-26T10:19:54.688Z,9.50
2018-03-26T10:22:28.463Z,13.77
2018-03-26T10:25:02.843Z,15.13
2018-03-26T10:27:36.475Z,11.13
2018-03-26T10:30:10.221Z,12.00
2018-03-26T10:32:44.048Z,11.93
2018-03-26T10:35:17.662Z,14.90
2018-03-26T10:37:51.346Z,15.47
2018-03-26T10:40:25.085Z,15.77
2018-03-26T10:42:58.782Z,14.77
2018-03-26T10:45:32.406Z,12.93
2018-03-26T10:48:05.938Z,14.07
2018-03-26T10:50:39.682Z,10.27
2018-03-26T10:53:13.394Z,8.80
2018-03-26T10:55:47.178Z,9.47
2018-03-26T10:58:20.888Z,7.40
2018-03-26T11:00:54.582Z,8.03
2018-03-26T11:03:28.190Z,7.00
2018-03-26T11:06:01.846Z,6.63
2018-03-26T11:08:35.517Z,6.77
2018-03-26T11:11:09.272Z,7.50
2018-03-26T11:13:42.907Z,7.33
2018-03-26T11:16:16.859Z,6.73
2018-03-26T11:18:50.699Z,5.93
2018-03-26T11:21:24.431Z,7.00
2018-03-26T11:23:58.201Z,5.90
2018-03-26T11:26:31.917Z,6.10
2018-03-26T11:29:05.640Z,5.43
2018-03-26T11:31:39.317Z,6.40
2018-03-26T11:34:12.984Z,5.50
2018-03-26T11:36:46.764Z,6.23
2018-03-26T11:39:20.493Z,5.90
2018-03-26T11:41:54.284Z,7.27
2018-03-26T11:44:28.014Z,8.60
2018-03-26T11:47:01.691Z,7.17
2018-03-26T11:49:35.512Z,6.87
2018-03-26T11:52:09.303Z,7.50
2018-03-26T11:54:42.887Z,6.60
2018-03-26T11:57:16.592Z,6.33
2018-03-26T11:59:50.263Z,6.30
2018-03-26T12:02:23.974Z,7.57
2018-03-26T12:04:57.662Z,8.20
2018-03-26T12:07:31.351Z,8.07
2018-03-26T12:10:05.098Z,9.23
2018-03-26T12:12:38.835Z,9.40
2018-03-26T12:15:12.515Z,7.50
2018-03-26T12:17:46.250Z,5.90
2018-03-26T12:20:31.780Z,7.30
2018-03-26T12:23:17.375Z,7.90
2018-03-26T12:26:04.089Z,6.27
2018-03-26T12:28:49.795Z,6.37
2018-03-26T12:31:23.474Z,6.03
2018-03-26T12:34:09.024Z,6.97
2018-03-26T12:36:42.686Z,6.53
2018-03-26T12:39:16.391Z,5.53
2018-03-26T12:41:50.350Z,6.97
2018-03-26T12:44:36.022Z,6.93
2018-03-26T12:47:09.730Z,5.80
2018-03-26T12:49:43.312Z,5.87
2018-03-26T12:52:28.832Z,6.20
2018-03-26T12:55:02.611Z,6.20
2018-03-26T12:57:48.331Z,8.60
2018-03-26T13:00:22.041Z,5.77
2018-03-26T13:02:55.572Z,5.67
2018-03-26T13:05:29.430Z,5.30
2018-03-26T13:08:03.378Z,5.50
2018-03-26T13:10:37.127Z,5.60
2018-03-26T13:13:10.763Z,5.20
2018-03-26T13:15:44.587Z,5.77
2018-03-26T13:18:18.372Z,5.00
2018-03-26T13:20:52.134Z,4.70
2018-03-26T13:23:25.865Z,4.63
2018-03-26T13:25:59.764Z,4.83
2018-03-26T13:28:33.418Z,4.90
2018-03-26T13:31:07.043Z,4.67
2018-03-26T13:33:40.782Z,4.67
2018-03-26T13:36:14.458Z,4.73
2018-03-26T13:38:48.018Z,5.53
2018-03-26T13:41:21.785Z,5.27
2018-03-26T13:43:55.479Z,5.23
2018-03-26T13:46:34.384Z,4.60
2018-03-26T13:49:08.050Z,4.80
2018-03-26T13:51:41.830Z,4.70
2018-03-26T13:54:15.518Z,5.17
2018-03-26T13:56:49.313Z,4.90
2018-03-26T13:59:23.051Z,4.90
2018-03-26T14:01:56.674Z,5.50
2018-03-26T14:04:30.235Z,5.07
2018-03-26T14:07:03.830Z,5.20
2018-03-26T14:12:49.677Z,4.33
2018-03-26T14:15:35.338Z,4.97
2018-03-26T14:18:09.086Z,5.03
2018-03-26T14:20:42.697Z,4.70
2018-03-26T14:23:16.285Z,4.53
2018-03-26T14:25:50.032Z,4.50
2018-03-26T14:28:23.549Z,5.57
2018-03-26T14:30:57.153Z,5.63
2018-03-26T14:33:30.739Z,5.17
2018-03-26T14:36:04.337Z,4.83
2018-03-26T14:38:37.846Z,4.83
2018-03-26T14:41:11.797Z,4.53
2018-03-26T14:43:45.405Z,4.40
2018-03-26T14:46:19.044Z,4.40
2018-03-26T14:48:52.605Z,4.83
2018-03-26T14:51:26.249Z,4.43
2018-03-26T14:53:59.922Z,5.07
2018-03-26T14:56:33.477Z,4.77
2018-03-26T14:59:07.249Z,5.10
2018-03-26T15:01:40.790Z,5.33
2018-03-26T15:04:14.517Z,4.73
2018-03-26T15:06:48.278Z,4.77
2018-03-26T15:09:21.845Z,4.60
2018-03-26T15:11:55.369Z,5.10
2018-03-26T15:14:28.999Z,4.93
2018-03-26T15:17:16.896Z,4.90
2018-03-26T15:19:50.654Z,5.53
2018-03-26T15:22:24.402Z,3.93
2018-03-26T15:24:57.910Z,3.40
2018-03-26T15:27:31.587Z,3.10
2018-03-26T15:30:05.209Z,2.37
2018-03-26T15:32:38.878Z,2.27
2018-03-26T15:35:12.443Z,1.97
2018-03-26T15:37:46.241Z,2.77
2018-03-26T15:40:19.802Z,2.60
2018-03-26T15:42:53.293Z,2.83
2018-03-26T15:45:27.074Z,2.83
2018-03-26T15:48:00.726Z,2.80
2018-03-26T15:50:34.529Z,2.27
2018-03-26T15:53:08.343Z,2.60
2018-03-26T15:55:42.002Z,2.40
2018-03-26T15:58:15.637Z,2.57
2018-03-26T16:00:49.763Z,4.17
2018-03-26T16:03:29.113Z,2.63
2018-03-26T16:06:02.782Z,3.37
2018-03-26T16:08:36.566Z,3.70
2018-03-26T16:11:10.147Z,3.57
2018-03-26T16:13:43.745Z,3.93
2018-03-26T16:16:17.422Z,3.90
2018-03-26T16:18:51.077Z,4.20
2018-03-26T16:21:24.765Z,5.40
2018-03-26T16:23:58.375Z,4.30
2018-03-26T16:26:32.021Z,5.13
2018-03-26T16:29:05.671Z,4.73
2018-03-26T16:31:39.233Z,5.33
2018-03-26T16:34:12.770Z,4.30
2018-03-26T16:36:46.401Z,5.83
2018-03-26T16:39:20.096Z,5.57
2018-03-26T16:41:53.750Z,5.77
2018-03-26T16:44:27.392Z,5.43
2018-03-26T16:47:00.968Z,5.57
2018-03-26T16:49:34.509Z,6.80
2018-03-26T16:52:08.152Z,6.43
2018-03-26T16:54:41.730Z,5.20
2018-03-26T16:57:15.396Z,5.30
2018-03-26T16:59:48.977Z,5.30
2018-03-26T17:02:22.689Z,5.70
2018-03-26T17:04:56.457Z,5.33
2018-03-26T17:07:30.089Z,5.00
2018-03-26T17:10:03.639Z,5.10
2018-03-26T17:12:37.209Z,5.93
2018-03-26T17:15:10.953Z,5.33
2018-03-26T17:17:44.617Z,4.93
2018-03-26T17:20:18.190Z,5.47
2018-03-26T17:22:51.752Z,4.47
2018-03-26T17:25:25.287Z,5.13
2018-03-26T17:27:58.805Z,4.33
2018-03-26T17:30:32.318Z,5.37
2018-03-26T17:33:05.910Z,5.77
2018-03-26T17:35:39.474Z,5.03
2018-03-26T17:38:12.944Z,5.20
2018-03-26T17:40:46.609Z,5.63
2018-03-26T17:43:20.302Z,6.73
2018-03-26T17:45:53.853Z,5.47
2018-03-26T17:48:27.679Z,5.93
2018-03-26T17:51:01.338Z,6.30
2018-03-26T17:53:34.874Z,5.70
2018-03-26T17:56:08.490Z,5.70
2018-03-26T17:58:42.153Z,7.90
2018-03-26T18:01:15.792Z,5.53
2018-03-26T18:03:49.265Z,5.30
2018-03-26T18:06:22.946Z,5.27
2018-03-26T18:08:56.511Z,4.93
2018-03-26T18:11:30.130Z,5.03
2018-03-26T18:14:03.681Z,5.53
2018-03-26T18:16:37.330Z,6.80
2018-03-26T18:19:10.986Z,8.30
2018-03-26T18:21:44.813Z,10.33
2018-03-26T18:24:18.437Z,7.90
2018-03-26T18:26:52.029Z,8.00
2018-03-26T18:29:25.671Z,7.70
2018-03-26T18:31:59.317Z,7.93
2018-03-26T18:34:33.011Z,7.80
2018-03-26T18:37:06.490Z,9.60
2018-03-26T18:39:40.158Z,9.47
2018-03-26T18:42:13.798Z,9.77
2018-03-26T18:44:47.426Z,9.17
2018-03-26T18:47:21.138Z,9.80
2018-03-26T18:49:54.802Z,8.40
2018-03-26T18:52:28.390Z,8.73
2018-03-26T18:55:02.393Z,7.90
2018-03-26T18:57:36.038Z,8.13
2018-03-26T19:00:09.677Z,19.23
2018-03-26T19:02:43.246Z,8.80
2018-03-26T19:05:16.922Z,8.50
2018-03-26T19:07:50.470Z,9.20
2018-03-26T19:10:24.070Z,9.13
2018-03-26T19:12:57.614Z,9.33
2018-03-26T19:15:31.409Z,9.53
2018-03-26T19:18:05.010Z,10.50
2018-03-26T19:20:38.637Z,9.83
2018-03-26T19:23:12.262Z,9.50
2018-03-26T19:25:45.938Z,10.70
2018-03-26T19:28:19.574Z,11.27
2018-03-26T19:30:53.266Z,11.70
2018-03-26T19:33:26.946Z,14.40
2018-03-26T19:36:14.226Z,13.80
2018-03-26T19:38:47.990Z,11.57
2018-03-26T19:41:21.681Z,11.47
2018-03-26T19:43:55.294Z,10.47
2018-03-26T19:46:28.930Z,11.33
2018-03-26T19:49:02.445Z,11.10
2018-03-26T19:51:36.076Z,10.33
2018-03-26T19:54:09.667Z,10.80
2018-03-26T19:56:43.329Z,9.67
2018-03-26T19:59:16.930Z,9.43
2018-03-26T20:01:50.550Z,7.73
2018-03-26T20:04:24.133Z,8.27
2018-03-26T20:06:57.762Z,8.20
2018-03-26T20:09:31.419Z,9.63
2018-03-26T20:12:05.168Z,9.60
2018-03-26T20:14:39.015Z,7.97
2018-03-26T20:17:13.640Z,8.00
2018-03-26T20:19:47.373Z,8.23
2018-03-26T20:22:20.906Z,8.63
2018-03-26T20:24:54.505Z,8.23
2018-03-26T20:27:28.306Z,8.03
2018-03-26T20:30:01.960Z,7.23
2018-03-26T20:32:35.578Z,8.43
2018-03-26T20:35:09.131Z,9.80
2018-03-26T20:37:42.903Z,9.03
2018-03-26T20:40:16.539Z,10.00
2018-03-26T20:42:50.106Z,10.10
2018-03-26T20:45:23.831Z,10.57
2018-03-26T20:47:57.510Z,10.20
2018-03-26T20:50:31.047Z,11.03
2018-03-26T20:53:04.698Z,12.23
2018-03-26T20:55:38.302Z,13.93
2018-03-26T20:58:11.895Z,15.37
2018-03-26T21:00:45.544Z,17.13
2018-03-26T21:03:19.122Z,17.97
2018-03-26T21:05:52.686Z,18.20
2018-03-26T21:08:26.327Z,19.60
2018-03-26T21:10:59.980Z,22.87
2018-03-26T21:13:33.510Z,22.07
2018-03-26T21:16:07.199Z,20.00
2018-03-26T21:18:40.763Z,21.27
2018-03-26T21:21:14.499Z,22.20
2018-03-26T21:23:48.299Z,23.17
2018-03-26T21:26:21.942Z,20.77
2018-03-26T21:28:55.514Z,21.53
2018-03-26T21:31:29.181Z,22.03
2018-03-26T21:34:02.990Z,21.23
2018-03-26T21:36:36.543Z,22.93
2018-03-26T21:39:10.114Z,21.03
2018-03-26T21:41:43.672Z,20.47
2018-03-26T21:44:17.296Z,21.97
2018-03-26T21:46:50.926Z,20.77
2018-03-26T21:49:24.576Z,18.83
2018-03-26T21:51:58.127Z,17.97
2018-03-26T21:54:31.788Z,17.27
2018-03-26T21:57:05.418Z,16.60
2018-03-26T21:59:39.050Z,18.70
2018-03-26T22:02:12.642Z,16.10
2018-03-26T22:04:46.395Z,17.33
2018-03-26T22:07:20.098Z,17.83
2018-03-26T22:09:53.676Z,18.23
2018-03-26T22:12:27.361Z,18.57
2018-03-26T22:15:01.242Z,18.57
2018-03-26T22:17:34.883Z,21.53
2018-03-26T22:20:08.503Z,20.77
2018-03-26T22:22:42.123Z,83.43
2018-03-26T22:25:15.798Z,43.87
2018-03-26T22:27:49.429Z,34.87
2018-03-26T22:30:23.095Z,37.00
2018-03-26T22:32:56.842Z,30.23
2018-03-26T22:35:30.424Z,25.97
2018-03-26T22:38:03.951Z,33.47
2018-03-26T22:40:37.451Z,26.47
2018-03-26T22:43:11.066Z,66.30
2018-03-26T22:45:44.694Z,24.63
2018-03-26T22:48:18.335Z,40.20
2018-03-26T22:50:52.047Z,30.23
2018-03-26T22:53:25.630Z,23.83
2018-03-26T22:55:59.169Z,21.23
2018-03-26T22:58:32.715Z,94.67
2018-03-26T23:01:06.442Z,23.63
2018-03-26T23:03:40.021Z,18.50
2018-03-26T23:06:13.646Z,19.50
2018-03-26T23:08:47.173Z,19.47
2018-03-26T23:11:20.733Z,20.27
2018-03-26T23:13:54.395Z,21.10
2018-03-26T23:16:28.054Z,20.93
2018-03-26T23:19:01.640Z,21.33
2018-03-26T23:21:35.337Z,21.63
2018-03-26T23:24:08.842Z,22.23
2018-03-26T23:26:42.559Z,20.40
2018-03-26T23:29:16.117Z,21.67
2018-03-26T23:31:49.733Z,21.30
2018-03-26T23:34:23.277Z,19.97
2018-03-26T23:43:09.847Z,20.90
2018-03-26T23:45:43.517Z,22.57
2018-03-26T23:48:17.020Z,22.33
2018-03-26T23:50:50.736Z,22.97
2018-03-26T23:53:24.290Z,22.70
2018-03-26T23:55:57.883Z,23.83
2018-03-26T23:58:31.446Z,23.03
